createdAt,value
2019-04-07T01:04:01.401Z,98.30
2019-04-07T01:09:11.468Z,98.60
2019-04-07T01:14:19.225Z,98.20
2019-04-07T01:19:26.926Z,97.90
2019-04-07T01:24:35.225Z,98.00
2019-04-07T01:29:43.003Z,98.20
2019-04-07T01:34:51.519Z,98.00
2019-04-07T01:39:59.230Z,96.60
2019-04-07T01:45:08.607Z,95.30
2019-04-07T01:50:16.039Z,95.70
2019-04-07T01:55:23.548Z,96.40
2019-04-07T02:00:32.592Z,96.30
2019-04-07T02:05:41.740Z,96.30
2019-04-07T02:10:51.496Z,95.70
2019-04-07T02:16:00.865Z,95.80
2019-04-07T02:21:09.960Z,95.50
2019-04-07T02:26:17.796Z,95.80
2019-04-07T02:31:25.547Z,95.30
2019-04-07T02:36:35.775Z,95.20
2019-04-07T02:41:44.903Z,94.90
2019-04-07T02:46:53.374Z,94.80
2019-04-07T02:52:02.822Z,94.20
2019-04-07T02:57:13.176Z,93.40
2019-04-07T03:02:22.244Z,93.90
2019-04-07T03:07:31.075Z,93.20
2019-04-07T03:12:41.406Z,92.50
2019-04-07T03:17:50.201Z,92.30
2019-04-07T03:23:00.276Z,92.90
2019-04-07T03:28:10.295Z,92.40
2019-04-07T03:33:22.632Z,92.20
2019-04-07T03:38:31.497Z,91.90
2019-04-07T03:43:41.701Z,91.80
2019-04-07T03:48:51.356Z,91.40
2019-04-07T03:54:00.644Z,91.70
2019-04-07T03:59:09.643Z,91.40
2019-04-07T04:04:18.897Z,91.40
2019-04-07T04:09:28.403Z,90.80
2019-04-07T04:14:37.681Z,91.30
2019-04-07T04:19:46.596Z,91.30
2019-04-07T04:24:55.466Z,90.90
2019-04-07T04:30:03.349Z,90.80
2019-04-07T04:35:11.099Z,89.40
2019-04-07T04:40:20.502Z,90.00
2019-04-07T04:45:28.375Z,89.10
2019-04-07T04:50:36.001Z,87.30
2019-04-07T04:55:44.046Z,88.10
2019-04-07T05:00:52.393Z,86.90
2019-04-07T05:06:00.302Z,85.50
2019-04-07T05:11:08.118Z,85.60
2019-04-07T05:16:17.512Z,84.80
2019-04-07T05:21:26.159Z,85.00
2019-04-07T05:26:34.516Z,83.70
2019-04-07T05:31:42.032Z,83.30
2019-04-07T05:36:50.103Z,82.50
2019-04-07T05:41:58.202Z,82.70
2019-04-07T05:47:06.303Z,82.20
2019-04-07T05:52:14.851Z,81.70
2019-04-07T05:57:22.973Z,81.10
2019-04-07T06:02:32.515Z,83.40
2019-04-07T06:07:40.249Z,83.00
2019-04-07T06:12:48.294Z,80.80
2019-04-07T06:18:00.581Z,74.80
2019-04-07T06:23:06.150Z,75.10
2019-04-07T06:28:17.436Z,77.70
2019-04-07T06:33:23.027Z,77.40
2019-04-07T06:38:34.542Z,76.50
2019-04-07T06:43:40.992Z,75.20
2019-04-07T06:48:50.472Z,75.70
2019-04-07T06:54:00.128Z,74.70
2019-04-07T06:59:13.898Z,74.20
2019-04-07T07:04:19.565Z,74.70
2019-04-07T07:09:28.956Z,73.90
2019-04-07T07:14:43.711Z,73.60
2019-04-07T07:19:49.795Z,74.40
2019-04-07T07:25:00.000Z,73.90
2019-04-07T07:30:07.798Z,74.20
2019-04-07T07:35:16.345Z,75.10
2019-04-07T07:40:24.365Z,75.40
2019-04-07T07:45:35.199Z,73.40
2019-04-07T07:50:43.655Z,73.90
2019-04-07T07:55:51.922Z,73.80
2019-04-07T08:01:00.504Z,73.40
2019-04-07T08:06:09.651Z,73.60
2019-04-07T08:11:17.681Z,72.80
2019-04-07T08:16:29.367Z,72.00
2019-04-07T08:21:35.809Z,70.00
2019-04-07T08:26:43.717Z,70.20
2019-04-07T08:31:54.972Z,70.20
2019-04-07T08:37:00.973Z,69.50
2019-04-07T08:42:11.014Z,69.50
2019-04-07T08:47:21.133Z,69.00
2019-04-07T08:52:38.489Z,69.40
2019-04-07T08:58:04.314Z,68.70
2019-04-07T09:03:20.781Z,69.70
2019-04-07T09:08:29.560Z,70.70
2019-04-07T09:13:38.470Z,70.50
2019-04-07T09:19:07.351Z,70.80
2019-04-07T09:24:11.426Z,71.00
2019-04-07T09:29:26.142Z,70.90
2019-04-07T09:34:42.908Z,71.20
2019-04-07T09:39:56.973Z,71.30
2019-04-07T09:45:07.445Z,71.80
2019-04-07T09:50:17.468Z,71.80
2019-04-07T09:55:28.745Z,71.30
2019-04-07T10:00:44.380Z,71.00
2019-04-07T10:05:53.490Z,71.40
2019-04-07T10:11:03.037Z,71.30
2019-04-07T10:16:14.896Z,73.40
2019-04-07T10:21:24.212Z,69.60
2019-04-07T10:26:33.702Z,69.40
2019-04-07T10:31:44.157Z,68.90
2019-04-07T10:36:52.134Z,68.00
2019-04-07T10:42:00.224Z,66.70
2019-04-07T10:47:09.622Z,66.80
2019-04-07T10:52:19.701Z,66.20
2019-04-07T10:57:29.672Z,66.90
2019-04-07T11:02:39.277Z,67.90
2019-04-07T11:07:48.271Z,68.20
2019-04-07T11:12:58.197Z,68.80
2019-04-07T11:18:07.768Z,69.20
2019-04-07T11:23:16.801Z,69.80
2019-04-07T11:28:28.687Z,70.30
2019-04-07T11:33:36.261Z,71.20
2019-04-07T11:38:45.248Z,72.00
2019-04-07T11:43:54.561Z,72.30
2019-04-07T11:49:04.157Z,72.20
2019-04-07T11:54:13.292Z,72.40
2019-04-07T11:59:22.334Z,72.60
2019-04-07T12:04:32.687Z,69.80
2019-04-07T12:09:41.764Z,74.10
2019-04-07T12:14:53.142Z,73.90
2019-04-07T12:20:00.858Z,72.90
2019-04-07T12:25:10.598Z,71.40
2019-04-07T12:30:21.459Z,71.30
2019-04-07T12:35:32.415Z,71.70
2019-04-07T12:40:40.996Z,72.60
2019-04-07T12:45:50.286Z,74.40
2019-04-07T12:50:59.462Z,75.10
2019-04-07T12:56:09.589Z,76.10
2019-04-07T13:01:19.892Z,78.20
2019-04-07T13:06:29.587Z,81.50
2019-04-07T13:11:44.971Z,84.70
2019-04-07T13:16:55.905Z,85.70
2019-04-07T13:22:04.182Z,85.00
2019-04-07T13:27:35.232Z,84.10
2019-04-07T13:32:44.538Z,83.30
2019-04-07T13:37:53.349Z,82.20
2019-04-07T13:43:04.193Z,80.90
2019-04-07T13:48:15.830Z,77.80
2019-04-07T13:53:25.032Z,74.70
2019-04-07T13:58:35.367Z,74.20
2019-04-07T14:03:43.738Z,77.00
2019-04-07T14:08:53.440Z,78.00
2019-04-07T14:14:02.856Z,78.30
2019-04-07T14:19:11.303Z,78.10
2019-04-07T14:24:20.436Z,77.50
2019-04-07T14:29:30.273Z,76.40
2019-04-07T14:34:40.187Z,75.90
2019-04-07T14:39:49.048Z,74.50
2019-04-07T14:44:59.095Z,73.50
2019-04-07T14:50:11.743Z,73.30
2019-04-07T14:55:20.600Z,73.00
2019-04-07T15:00:30.084Z,73.80
2019-04-07T15:05:39.205Z,73.90
2019-04-07T15:10:50.031Z,74.50
2019-04-07T15:15:58.225Z,74.10
2019-04-07T15:21:06.750Z,72.00
2019-04-07T15:26:15.734Z,72.20
2019-04-07T15:31:24.992Z,72.20
2019-04-07T15:36:33.440Z,72.10
2019-04-07T15:41:44.127Z,72.30
2019-04-07T15:46:53.353Z,72.40
2019-04-07T15:52:02.365Z,72.90
2019-04-07T15:57:11.293Z,73.50
2019-04-07T16:02:19.528Z,74.00
2019-04-07T16:07:28.378Z,74.20
2019-04-07T16:12:45.136Z,74.80
2019-04-07T16:17:47.582Z,75.70
2019-04-07T16:22:55.757Z,76.30
2019-04-07T16:28:03.775Z,76.90
2019-04-07T16:33:11.962Z,77.50
2019-04-07T16:38:20.643Z,78.00
2019-04-07T16:43:32.383Z,78.80
2019-04-07T16:48:40.264Z,79.40
2019-04-07T16:53:48.608Z,79.90
2019-04-07T16:58:56.659Z,80.50
2019-04-07T17:04:04.888Z,80.90
2019-04-07T17:09:15.370Z,81.30
2019-04-07T17:14:23.611Z,81.90
2019-04-07T17:19:32.292Z,82.30
2019-04-07T17:24:40.945Z,82.80
2019-04-07T17:29:52.434Z,83.20
2019-04-07T17:34:57.958Z,83.60
2019-04-07T17:40:11.296Z,84.10
2019-04-07T17:45:20.394Z,84.60
2019-04-07T17:50:31.527Z,85.70
2019-04-07T17:55:42.166Z,85.80
2019-04-07T18:00:51.732Z,86.60
2019-04-07T18:06:01.654Z,86.90
2019-04-07T18:11:11.847Z,87.20
2019-04-07T18:16:21.322Z,87.70
2019-04-07T18:21:31.366Z,87.90
2019-04-07T18:26:41.822Z,88.00
2019-04-07T18:31:50.967Z,88.40
2019-04-07T18:36:59.903Z,88.50
2019-04-07T18:42:12.060Z,88.60
2019-04-07T18:47:22.729Z,89.10
2019-04-07T18:52:29.789Z,89.40
2019-04-07T18:57:40.075Z,89.70
2019-04-07T19:02:49.365Z,90.00
2019-04-07T19:07:58.377Z,90.00
2019-04-07T19:13:14.210Z,90.10
2019-04-07T19:18:18.180Z,90.30
2019-04-07T19:23:28.458Z,90.60
2019-04-07T19:28:38.249Z,90.70
2019-04-07T19:33:47.483Z,90.60
2019-04-07T19:38:56.413Z,90.60
2019-04-07T19:44:06.022Z,90.90
2019-04-07T19:49:19.025Z,91.10
2019-04-07T19:54:25.180Z,91.10
2019-04-07T19:59:34.013Z,91.10
2019-04-07T20:04:45.856Z,91.10
2019-04-07T20:09:52.938Z,91.10
2019-04-07T20:15:06.934Z,91.10
2019-04-07T20:20:13.629Z,91.30
2019-04-07T20:25:22.593Z,91.40
2019-04-07T20:30:31.553Z,91.40
2019-04-07T20:35:42.260Z,91.60
2019-04-07T20:40:50.684Z,91.70
2019-04-07T20:46:00.248Z,91.80
2019-04-07T20:51:09.300Z,91.70
2019-04-07T20:56:18.636Z,91.80
2019-04-07T21:01:27.733Z,91.70
2019-04-07T21:06:36.641Z,91.80
2019-04-07T21:11:46.989Z,91.90
2019-04-07T21:16:57.885Z,91.90
2019-04-07T21:22:04.288Z,92.00
2019-04-07T21:27:13.115Z,91.90
2019-04-07T21:32:22.691Z,92.00
2019-04-07T21:37:32.592Z,92.10
2019-04-07T21:42:42.266Z,92.10
2019-04-07T21:47:53.073Z,92.40
2019-04-07T21:53:03.002Z,92.30
2019-04-07T21:58:10.608Z,92.20
2019-04-07T22:03:22.043Z,92.30
2019-04-07T22:08:30.493Z,92.40
2019-04-07T22:13:38.629Z,92.40
2019-04-07T22:18:47.089Z,92.20
2019-04-07T22:23:55.076Z,91.90
2019-04-07T22:29:04.039Z,91.60
2019-04-07T22:34:11.563Z,91.60
2019-04-07T22:39:20.436Z,91.50
2019-04-07T22:44:29.093Z,91.50
2019-04-07T22:49:37.667Z,91.40
2019-04-07T22:54:45.388Z,91.50
2019-04-07T22:59:54.593Z,91.60
2019-04-07T23:05:03.003Z,91.80
2019-04-07T23:10:11.209Z,91.80
2019-04-07T23:15:18.858Z,91.90
2019-04-07T23:20:26.905Z,92.20
2019-04-07T23:25:34.440Z,92.30
2019-04-07T23:30:42.964Z,92.20
2019-04-07T23:35:50.857Z,92.40
2019-04-07T23:40:59.175Z,92.50
2019-04-07T23:46:19.457Z,92.60
2019-04-07T23:51:17.022Z,92.60
2019-04-07T23:56:25.259Z,92.60
